• Join FlightAware (Why Join?)
  • Login
  • US Flag 
05:21PM EDT


 

Airport Tracker/Info


-or-


 

Live Flight TrackerFlight Track Log ✈ N4446X ✈ 16-Jul-2013 ✈ KISQ - 08C

Flight Track Log - Related Links

Times and Time Zones

All times are in EDT time to prevent confusion due to time zone crossing. See the N4446X flight status page for this flight to view local times or setup timezone preferences in your user account.

Time Position Orientation Groundspeed Altitude Reporting Facility
EDT Latitude Longitude Course Direction KTS MPH feet Rate Location/Type
04:30PM 45.9064 -86.1503 321° Northwest 107 123 3,100  Level Minneapolis Center
04:31PM 45.8772 -86.1489 178° South 105 121 3,800 780 Climbing Minneapolis Center
04:32PM 45.8414 -86.1508 182° South 105 121 4,800 900 Climbing Minneapolis Center
04:33PM 45.8097 -86.1522 182° South 109 125 5,700 840 Climbing Minneapolis Center
04:34PM 45.7783 -86.1472 174° South 112 129 6,600 660 Climbing Minneapolis Center
04:35PM 45.0626 -86.0579 321° Northwest  Level Estimated
04:35PM 45.7436 -86.1428 175° South 117 135 7,100  Level Minneapolis Center
04:36PM 45.7006 -86.1383 176° South 136 157 7,100  Level Minneapolis Center
04:37PM 45.6442 -86.1297 174° South 158 182 7,100  Level Minneapolis Center
04:38PM 45.5983 -86.1244 175° South 163 188 7,100  Level Minneapolis Center
04:39PM 45.5519 -86.1197 176° South 166 191 7,100 -60 Level Minneapolis Center
04:40PM 45.5042 -86.1139 175° South 169 194 7,000 -60 Descending Minneapolis Center
04:41PM 45.4581 -86.1075 174° South 169 194 7,000 60 Level Minneapolis Center
04:42PM 45.4114 -86.1017 175° South 168 193 7,200  Climbing Minneapolis Center
04:43PM 45.3547 -86.0944 175° South 169 194 7,100 -60 Descending Minneapolis Center
04:44PM 45.3075 -86.0886 175° South 170 196 7,100  Level Minneapolis Center
04:45PM 45.2611 -86.0836 176° South 170 196 7,100  Level Minneapolis Center
04:46PM 45.2142 -86.0778 175° South 169 194 7,100  Level Minneapolis Center
04:47PM 45.1667 -86.0717 175° South 169 194 7,100  Level Minneapolis Center
04:48PM 45.1192 -86.0658 175° South 172 198 7,100  Level Minneapolis Center
04:49PM 45.0636 -86.0592 175° South 169 194 7,100  Level Minneapolis Center
04:50PM 45.0172 -86.0539 175° South 168 193 7,100  Level Minneapolis Center
04:51PM 44.9706 -86.0481 175° South 167 192 7,100  Level Minneapolis Center
04:53PM 44.9239 -86.0419 175° South 168 193 7,100  Level Minneapolis Center
04:54PM 44.8783 -86.0367 175° South 167 192 7,100  Level Minneapolis Center
04:55PM 44.8314 -86.0308 175° South 167 192 7,100  Level Minneapolis Center
04:56PM 44.7825 -86.0181 169° South 168 193 7,100  Level Minneapolis Center
04:57PM 44.7347 -86.0158 178° South 169 194 7,100  Level Minneapolis Center
04:58PM 44.6897 -86.0111 176° South 166 191 7,100  Level Minneapolis Center
04:59PM 44.6347 -86.0028 174° South 165 190 7,100  Level Minneapolis Center
05:00PM 44.5889 -85.9992 177° South 166 191 7,100  Level Minneapolis Center
05:01PM 44.5414 -85.9925 174° South 169 194 7,100  Level Minneapolis Center
05:02PM 44.4950 -85.9869 175° South 168 193 7,100  Level Minneapolis Center
05:03PM 44.4483 -85.9808 175° South 169 194 7,100  Level Minneapolis Center
05:04PM 44.3922 -85.9736 175° South 169 194 7,100  Level Minneapolis Center
05:05PM 44.3461 -85.9786 184° South 167 192 7,100  Level Minneapolis Center
05:06PM 44.2997 -85.9758 178° South 167 192 7,100  Level Minneapolis Center
05:07PM 44.2547 -85.9564 163° South 168 193 7,100  Level Minneapolis Center
05:08PM 44.2086 -85.9483 173° South 168 193 7,100  Level Minneapolis Center
05:09PM 44.1622 -85.9500 181° South 167 192 7,100  Level Minneapolis Center
05:10PM 44.1069 -85.9392 172° South 167 192 7,100  Level Minneapolis Center
05:11PM 44.0642 -85.9339 175° South 168 193 7,100  Level Minneapolis Center
05:12PM 44.0178 -85.9308 177° South 167 192 7,100  Level Minneapolis Center
05:13PM 43.9622 -85.9225 174° South 168 193 7,100  Level Minneapolis Center
05:14PM 43.9075 -85.9144 174° South 166 191 7,100  Level Minneapolis Center
05:15PM 43.8614 -85.9094 176° South 167 192 7,100  Level Minneapolis Center
05:17PM 43.8156 -85.9053 176° South 165 190 7,100  Level Minneapolis Center
05:18PM 43.7700 -85.8983 174° South 165 190 7,100  Level Minneapolis Center
05:19PM 43.7233 -85.8942 176° South 167 192 7,100  Level Minneapolis Center
05:20PM 43.6767 -85.8881 175° South 168 193 7,100  Level Minneapolis Center
05:21PM 43.6211 -85.8819 175° South 168 193 7,100  Level Minneapolis Center
05:22PM 43.5747 -85.8772 176° South 167 192 7,100  Level Minneapolis Center
05:23PM 43.5275 -85.8689 173° South 170 196 7,100  Level Minneapolis Center
05:24PM 43.4808 -85.8639 176° South 170 196 7,100  Level Chicago Center
05:25PM 43.4244 -85.8594 177° South 169 194 7,100 -120 Level Chicago Center
05:26PM 43.3775 -85.8558 177° South 169 194 6,900 -360 Descending Chicago Center
05:27PM 43.3281 -85.8489 174° South 175 201 6,400 -540 Descending Chicago Center
05:28PM 43.2781 -85.8442 176° South 179 206 5,900 -540 Descending Chicago Center
05:29PM 43.2281 -85.8378 175° South 179 206 5,300 -600 Descending Chicago Center
05:30PM 43.1794 -85.8325 175° South 177 204 4,700 -720 Descending Chicago Center
05:31PM 43.1222 -85.8261 175° South 174 200 3,900 -540 Descending Chicago Center
05:32PM 43.0814 -85.8214 175° South 170 196 3,600 -300 Descending Chicago Center